^^
B2 Weather Station Historical Data
Daily Summary for July 16, 2019 Units:  English    Metric   Both
Daily Weekly Monthly Yearly Custom
  High: Low: Average:
Temperature: 85.6 °F 69.5 °F 75 °F
Dew Point: 78.2 °F 68 °F 72.3 °F
Humidity: 95% 73% 92%
Wind Speed: 11.5mph 0mph 2.2mph
Wind Gust: 7.8mph - -
Wind- - South
Pressure: 29.98 in 29.82 in -
Precipitation: 0.24 in    
Historical Graphs
 
 
Tabular Data for July 16, 2019
Time Temperature Dew Point Pressure Wind Wind Speed Wind Gust Humidity Rainfall Rate (Hourly) solar
00:04 74.3 °F 69.1 °F 29.98 in South 3.5 mph 3 mph 84% 0 in 0.00 W/m2
00:09 73.9 °F 69.1 °F 29.98 in South 9.2 mph 3.8 mph 85% 0 in 0.00 W/m2
00:14 73.3 °F 69.2 °F 29.98 in South 4.6 mph 1.8 mph 87% 0.01 in 0.00 W/m2
00:19 72.8 °F 69.4 °F 29.98 in SSE 4 mph 2.9 mph 89% 0.02 in 0.00 W/m2
00:24 72.2 °F 69.1 °F 29.98 in South 3.5 mph 1.3 mph 90% 0.02 in 0.00 W/m2
00:29 71.8 °F 69 °F 29.98 in South 4.6 mph 2.5 mph 91% 0.04 in 0.00 W/m2
00:34 71.5 °F 69.1 °F 29.98 in South 3.5 mph 1.4 mph 92% 0.05 in 0.00 W/m2
00:39 71.2 °F 68.8 °F 29.98 in SSE 3.5 mph 1.8 mph 92% 0.07 in 0.00 W/m2
00:44 71.1 °F 69 °F 29.97 in SE 3.5 mph 2 mph 93% 0.08 in 0.00 W/m2
00:49 70.9 °F 68.8 °F 29.97 in SE 3.5 mph 1.9 mph 93% 0.08 in 0.00 W/m2
00:54 70.7 °F 68.6 °F 29.97 in SE 2.3 mph 0.9 mph 93% 0.09 in 0.00 W/m2
00:59 70.6 °F 68.8 °F 29.97 in Calm     94% 0.09 in 0.00 W/m2
01:04 70.5 °F 68.7 °F 29.96 in Calm     94% 0.1 in 0.00 W/m2
01:09 70.4 °F 68.6 °F 29.96 in SE 2.3 mph   94% 0.11 in 0.00 W/m2
01:14 70.3 °F 68.5 °F 29.96 in Calm     94% 0.1 in 0.00 W/m2
01:19 70.3 °F 68.5 °F 29.96 in Calm     94% 0.11 in 0.00 W/m2
01:24 70.3 °F 68.5 °F 29.96 in SE 1.2 mph   94% 0.11 in 0.00 W/m2
01:29 70.3 °F 68.5 °F 29.96 in SE 3.5 mph 1.3 mph 94% 0.09 in 0.00 W/m2
01:34 70.3 °F 68.5 °F 29.96 in SE 2.3 mph   94% 0.08 in 0.00 W/m2
01:39 70.2 °F 68.7 °F 29.95 in SE 3.5 mph   95% 0.06 in 0.00 W/m2
01:44 70.2 °F 68.7 °F 29.95 in Calm     95% 0.05 in 0.00 W/m2
01:49 70.2 °F 68.7 °F 29.95 in Calm     95% 0.05 in 0.00 W/m2
01:54 70.2 °F 68.7 °F 29.95 in Calm     95% 0.04 in 0.00 W/m2
01:59 70.2 °F 68.7 °F 29.95 in Calm     95% 0.04 in 0.00 W/m2
02:04 70.1 °F 68.6 °F 29.94 in Calm     95% 0.03 in 0.00 W/m2
02:09 70.1 °F 68.6 °F 29.95 in Calm     95% 0.02 in 0.00 W/m2
02:14 70.1 °F 68.6 °F 29.94 in Calm     95% 0.03 in 0.00 W/m2
02:19 70.1 °F 68.6 °F 29.94 in Calm     95% 0.01 in 0.00 W/m2
02:24 70.2 °F 68.7 °F 29.94 in Calm     95% 0.01 in 0.00 W/m2
02:29 70.2 °F 68.7 °F 29.93 in Calm     95% 0.01 in 0.00 W/m2
02:34 70.2 °F 68.7 °F 29.93 in Calm     95% 0.01 in 0.00 W/m2
02:39 70.2 °F 68.7 °F 29.93 in Calm     95% 0.02 in 0.00 W/m2
02:44 70.2 °F 68.7 °F 29.93 in Calm     95% 0.02 in 0.00 W/m2
02:49 70.2 °F 68.7 °F 29.93 in Calm     95% 0.02 in 0.00 W/m2
02:54 70.2 °F 68.7 °F 29.93 in Calm     95% 0.02 in 0.00 W/m2
02:59 70.2 °F 68.7 °F 29.92 in Calm     95% 0.02 in 0.00 W/m2
03:04 70.2 °F 68.7 °F 29.92 in Calm     95% 0.02 in 0.00 W/m2
03:09 70.2 °F 68.7 °F 29.92 in Calm     95% 0.02 in 0.00 W/m2
03:14 70.2 °F 68.7 °F 29.92 in Calm     95% 0.01 in 0.00 W/m2
03:19 70.2 °F 68.7 °F 29.92 in Calm     95% 0.01 in 0.00 W/m2
03:24 70.2 °F 68.7 °F 29.92 in Calm     95% 0.01 in 0.00 W/m2
03:29 70.1 °F 68.6 °F 29.92 in Calm     95% 0.01 in 0.00 W/m2
03:34 70.1 °F 68.6 °F 29.92 in Calm     95% 0.01 in 0.00 W/m2
03:39 70.1 °F 68.6 °F 29.91 in Calm     95% 0 in 0.00 W/m2
03:44 70.1 °F 68.6 °F 29.91 in Calm     95% 0 in 0.00 W/m2
03:49 70 °F 68.5 °F 29.91 in Calm     95% 0 in 0.00 W/m2
03:54 70 °F 68.5 °F 29.91 in Calm     95% 0 in 0.00 W/m2
03:59 70.1 °F 68.6 °F 29.91 in Calm     95% 0 in 0.00 W/m2
04:04 70.1 °F 68.6 °F 29.91 in Calm     95% 0 in 0.00 W/m2
04:09 70.1 °F 68.6 °F 29.91 in Calm     95% 0 in 0.00 W/m2
04:14 70.2 °F 68.7 °F 29.91 in Calm     95% 0 in 0.00 W/m2
04:19 70.2 °F 68.7 °F 29.91 in Calm     95% 0 in 0.00 W/m2
04:24 70.2 °F 68.7 °F 29.91 in Calm     95% 0 in 0.00 W/m2
04:29 70.3 °F 68.8 °F 29.91 in Calm     95% 0 in 0.00 W/m2
04:34 70.3 °F 68.8 °F 29.90 in Calm     95% 0 in 0.00 W/m2
04:39 70.2 °F 68.7 °F 29.90 in Calm     95% 0 in 0.00 W/m2
04:44 70.2 °F 68.7 °F 29.90 in Calm     95% 0 in 0.00 W/m2
04:49 70.1 °F 68.6 °F 29.90 in Calm     95% 0 in 0.00 W/m2
04:54 70 °F 68.5 °F 29.90 in Calm     95% 0 in 0.00 W/m2
04:59 69.9 °F 68.4 °F 29.90 in Calm     95% 0 in 0.00 W/m2
05:04 69.9 °F 68.4 °F 29.90 in Calm     95% 0 in 0.00 W/m2
05:09 69.8 °F 68.3 °F 29.91 in Calm     95% 0 in 0.00 W/m2
05:14 69.8 °F 68.3 °F 29.91 in Calm     95% 0 in 0.00 W/m2
05:19 69.7 °F 68.2 °F 29.91 in Calm     95% 0 in 0.00 W/m2
05:24 69.6 °F 68.1 °F 29.91 in Calm     95% 0 in 0.00 W/m2
05:29 69.5 °F 68 °F 29.91 in Calm     95% 0 in 0.00 W/m2
05:34 69.5 °F 68 °F 29.90 in Calm     95% 0 in 0.00 W/m2
05:39 69.5 °F 68 °F 29.90 in Calm     95% 0 in 0.00 W/m2
05:44 69.6 °F 68.1 °F 29.90 in Calm     95% 0 in 7.00 W/m2
05:49 69.7 °F 68.2 °F 29.90 in Calm     95% 0 in 12.00 W/m2
05:54 69.9 °F 68.4 °F 29.89 in Calm     95% 0 in 11.00 W/m2
05:59 70.1 °F 68.6 °F 29.89 in Calm     95% 0 in 11.00 W/m2
06:04 70.2 °F 68.7 °F 29.89 in SE 3.5 mph 1.8 mph 95% 0 in 11.00 W/m2
06:09 70.3 °F 68.8 °F 29.89 in SE 2.3 mph 0.4 mph 95% 0 in 9.00 W/m2
06:14 70.4 °F 68.9 °F 29.90 in Calm     95% 0 in 5.00 W/m2
06:19 70.4 °F 68.9 °F 29.90 in Calm     95% 0 in 5.00 W/m2
06:24 70.6 °F 69.1 °F 29.89 in SE 2.3 mph   95% 0 in 11.00 W/m2
06:29 70.6 °F 69.1 °F 29.89 in Calm     95% 0 in 19.00 W/m2
06:34 70.7 °F 69.2 °F 29.89 in Calm     95% 0 in 18.00 W/m2
06:39 70.8 °F 69.3 °F 29.90 in Calm     95% 0 in 18.00 W/m2
06:44 70.9 °F 69.4 °F 29.90 in Calm     95% 0 in 16.00 W/m2
06:49 71 °F 69.5 °F 29.90 in Calm     95% 0 in 11.00 W/m2
06:54 71.1 °F 69.6 °F 29.90 in Calm     95% 0 in 9.00 W/m2
06:59 71.3 °F 69.8 °F 29.91 in SSW 6 mph 1 mph 95% 0 in 9.00 W/m2
07:04 71.4 °F 69.9 °F 29.91 in South 3.5 mph 1.1 mph 95% 0 in 18.00 W/m2
07:09 71.5 °F 70 °F 29.90 in South 3.5 mph 0.3 mph 95% 0.01 in 23.00 W/m2
07:14 71.6 °F 70.1 °F 29.90 in SSE 5 mph 1.7 mph 95% 0.02 in 33.00 W/m2
07:19 71.8 °F 70.3 °F 29.90 in SSE 3.5 mph   95% 0.02 in 32.00 W/m2
07:24 71.9 °F 70.4 °F 29.90 in Calm     95% 0.03 in 33.00 W/m2
07:29 71.9 °F 70.4 °F 29.90 in SSE 2.3 mph 0.5 mph 95% 0.03 in 39.00 W/m2
07:34 72 °F 70.5 °F 29.90 in South 1 mph 0.8 mph 95% 0.03 in 39.00 W/m2
07:39 72.1 °F 70.6 °F 29.90 in SSE 3.5 mph 0.4 mph 95% 0.03 in 49.00 W/m2
07:44 72.2 °F 70.7 °F 29.90 in South 3.5 mph 2.2 mph 95% 0.03 in 60.00 W/m2
07:49 72.4 °F 70.9 °F 29.90 in SSE 5.8 mph 2.8 mph 95% 0.03 in 86.00 W/m2
07:54 72.6 °F 71.1 °F 29.90 in SSE 5.8 mph 3.9 mph 95% 0.03 in 104.00 W/m2
07:59 72.9 °F 71.4 °F 29.89 in SSE 5.8 mph 4 mph 95% 0.03 in 116.00 W/m2
08:04 73 °F 71.5 °F 29.89 in SSE 9.2 mph 4.4 mph 95% 0.03 in 128.00 W/m2
08:09 73.1 °F 71.6 °F 29.89 in SE 4.6 mph 4.4 mph 95% 0.02 in 134.00 W/m2
08:14 73.1 °F 71.6 °F 29.89 in South 8.1 mph 1.8 mph 95% 0.01 in 123.00 W/m2
08:19 73.3 °F 71.8 °F 29.89 in SE 10.4 mph 2.7 mph 95% 0.01 in 113.00 W/m2
08:24 73.3 °F 71.8 °F 29.89 in SSE 8.1 mph 3.1 mph 95% 0 in 137.00 W/m2
08:29 73.3 °F 71.8 °F 29.89 in SSE 8.1 mph 3.8 mph 95% 0 in 160.00 W/m2
08:34 73.6 °F 72.1 °F 29.89 in South 4.6 mph   95% 0 in 190.00 W/m2
08:39 73.9 °F 72.4 °F 29.90 in SSE 4.6 mph 1.2 mph 95% 0 in 204.00 W/m2
08:44 74 °F 72.5 °F 29.90 in SSW 3.5 mph 1.1 mph 95% 0 in 139.00 W/m2
08:49 74 °F 72.5 °F 29.90 in SSE 1.2 mph 0.6 mph 95% 0 in 144.00 W/m2
08:54 74 °F 72.5 °F 29.90 in South 5.8 mph 3.9 mph 95% 0 in 114.00 W/m2
08:59 74 °F 72.5 °F 29.90 in SSW 3.5 mph 0.4 mph 95% 0 in 88.00 W/m2
09:04 74.3 °F 72.8 °F 29.90 in Calm     95% 0 in 113.00 W/m2
09:09 74.3 °F 72.8 °F 29.90 in South 3.5 mph 0.2 mph 95% 0 in 93.00 W/m2
09:14 74.4 °F 72.9 °F 29.90 in South 2.3 mph 1.3 mph 95% 0 in 97.00 W/m2
09:19 74.6 °F 73.1 °F 29.90 in South 1.2 mph   95% 0 in 100.00 W/m2
09:24 74.6 °F 73.1 °F 29.90 in South 3.5 mph 0.3 mph 95% 0 in 70.00 W/m2
09:29 74.6 °F 73.1 °F 29.89 in South 2.3 mph   95% 0 in 107.00 W/m2
09:34 74.6 °F 73.1 °F 29.89 in South 2.3 mph 0.8 mph 95% 0 in 160.00 W/m2
09:39 74.8 °F 73 °F 29.89 in SSE 5.8 mph 2.3 mph 94% 0 in 214.00 W/m2
09:44 75 °F 73.2 °F 29.89 in South 5.8 mph 3.5 mph 94% 0 in 134.00 W/m2
09:49 75 °F 73.2 °F 29.89 in SSE 4.6 mph 2.6 mph 94% 0 in 114.00 W/m2
09:54 75 °F 73.2 °F 29.89 in SE 6.9 mph 4.8 mph 94% 0 in 148.00 W/m2
09:59 75.2 °F 73.4 °F 29.90 in SSE 6.9 mph 2.5 mph 94% 0 in 105.00 W/m2
10:04 75.2 °F 73.4 °F 29.90 in Calm     94% 0 in 84.00 W/m2
10:09 75.3 °F 73.5 °F 29.90 in Calm   0.3 mph 94% 0 in 107.00 W/m2
10:14 75.3 °F 73.1 °F 29.90 in SSW 4.6 mph 3 mph 93% 0 in 105.00 W/m2
10:19 75.5 °F 73.3 °F 29.90 in Calm     93% 0 in 53.00 W/m2
10:24 75.6 °F 73.4 °F 29.91 in Calm     93% 0 in 190.00 W/m2
10:29 75.9 °F 73.7 °F 29.91 in South 3.5 mph 1.1 mph 93% 0 in 294.00 W/m2
10:34 76.2 °F 74 °F 29.91 in SSE 8.1 mph 2.4 mph 93% 0 in 243.00 W/m2
10:39 76.5 °F 74 °F 29.91 in South 3.5 mph 0.5 mph 92% 0 in 220.00 W/m2
10:44 76.7 °F 74.2 °F 29.90 in South 5.8 mph 2.9 mph 92% 0 in 279.00 W/m2
10:49 76.7 °F 74.2 °F 29.91 in South 4 mph 0.6 mph 92% 0 in 120.00 W/m2
10:54 76.5 °F 73.7 °F 29.91 in SSE 5.8 mph 2.2 mph 91% 0 in 151.00 W/m2
10:59 76.5 °F 74 °F 29.91 in SSW 4.6 mph   92% 0 in 406.00 W/m2
11:04 77 °F 74.8 °F 29.90 in SSE 4.6 mph 1.6 mph 93% 0 in 390.00 W/m2
11:09 77.4 °F 74.9 °F 29.90 in South 6.9 mph 3.1 mph 92% 0 in 352.00 W/m2
11:14 78.2 °F 75.4 °F 29.90 in SSW 9.2 mph 5.2 mph 91% 0 in 533.00 W/m2
11:19 78.5 °F 75.3 °F 29.90 in SSW 4.6 mph 1.7 mph 90% 0 in 508.00 W/m2
11:24 78.7 °F 75.2 °F 29.90 in Calm   3.4 mph 89% 0 in 425.00 W/m2
11:29 78.8 °F 74.9 °F 29.90 in SSW 7 mph 4.6 mph 88% 0 in 494.00 W/m2
11:34 78.8 °F 74.6 °F 29.90 in SW 6.9 mph 1.5 mph 87% 0 in 262.00 W/m2
11:39 78.7 °F 74.5 °F 29.90 in South 5.8 mph 2.3 mph 87% 0 in 267.00 W/m2
11:44 78.7 °F 74.5 °F 29.90 in South 4.6 mph 1.6 mph 87% 0 in 253.00 W/m2
11:49 78.8 °F 74.9 °F 29.90 in South 4.6 mph 3.7 mph 88% 0 in 213.00 W/m2
11:54 78.7 °F 74.5 °F 29.90 in SW 4.6 mph 0.6 mph 87% 0 in 295.00 W/m2
11:59 79 °F 75.1 °F 29.90 in SE 6 mph 2.7 mph 88% 0 in 397.00 W/m2
12:04 79.4 °F 75.5 °F 29.90 in SSW 5.8 mph 0.3 mph 88% 0 in 527.00 W/m2
12:09 79.8 °F 75.2 °F 29.89 in South 3.5 mph   86% 0 in 459.00 W/m2
12:14 80.2 °F 74.9 °F 29.89 in South 4.6 mph 3.5 mph 84% 0 in 397.00 W/m2
12:19 80.4 °F 75.1 °F 29.89 in SSE 5 mph 2.5 mph 84% 0 in 401.00 W/m2
12:24 80.6 °F 75.3 °F 29.89 in SSE 5 mph 4.1 mph 84% 0 in 311.00 W/m2
12:29 80.5 °F 74.9 °F 29.89 in South 5.8 mph 3.8 mph 83% 0 in 295.00 W/m2
12:34 80.5 °F 75.2 °F 29.88 in SSW 2.3 mph   84% 0 in 287.00 W/m2
12:39 80.5 °F 75.2 °F 29.88 in South 4.6 mph 2.9 mph 84% 0 in 204.00 W/m2
12:44 80.4 °F 75.5 °F 29.88 in Calm     85% 0 in 290.00 W/m2
12:49 80.6 °F 75.3 °F 29.88 in SSE 6 mph 3.8 mph 84% 0 in 295.00 W/m2
12:54 80.7 °F 74.7 °F 29.88 in South 9.2 mph 5.1 mph 82% 0 in 329.00 W/m2
12:59 80.8 °F 74.8 °F 29.88 in South 5.8 mph 4.5 mph 82% 0 in 366.00 W/m2
13:04 81 °F 75.3 °F 29.88 in South 6.9 mph 2.8 mph 83% 0 in 425.00 W/m2
13:09 81.3 °F 76 °F 29.87 in SSE 11.5 mph 7.8 mph 84% 0 in 455.00 W/m2
13:14 81.8 °F 77.2 °F 29.87 in SSE 11.5 mph 5.2 mph 86% 0 in 860.00 W/m2
13:19 82.5 °F 77.9 °F 29.87 in SSW 8.1 mph 5.4 mph 86% 0 in 1134.00 W/m2
13:24 82.7 °F 77.7 °F 29.87 in South 8.1 mph 5 mph 85% 0 in 1023.00 W/m2
13:29 82.6 °F 77.6 °F 29.87 in SSE 8.1 mph 4.1 mph 85% 0 in 1116.00 W/m2
13:34 82.1 °F 76.1 °F 29.87 in SSE 6.9 mph 4.3 mph 82% 0 in 554.00 W/m2
13:39 81.6 °F 75.9 °F 29.86 in SSE 5.8 mph 2.3 mph 83% 0 in 631.00 W/m2
13:44 82 °F 77 °F 29.86 in SE 8.1 mph 2.4 mph 85% 0 in 976.00 W/m2
13:49 82.2 °F 76.5 °F 29.86 in SE 4 mph 2.1 mph 83% 0 in 489.00 W/m2
13:54 82.1 °F 76.1 °F 29.86 in SE 5.8 mph 2.8 mph 82% 0 in 425.00 W/m2
13:59 82 °F 76 °F 29.86 in SSE 3.5 mph   82% 0 in 420.00 W/m2
14:04 82 °F 75.2 °F 29.86 in Calm     80% 0 in 448.00 W/m2
14:09 82.2 °F 74.7 °F 29.85 in SSW 3.5 mph 2.8 mph 78% 0 in 471.00 W/m2
14:14 82.5 °F 75.3 °F 29.85 in Calm     79% 0 in 541.00 W/m2
14:19 83 °F 75.4 °F 29.85 in Calm     78% 0 in 1194.00 W/m2
14:24 83.7 °F 75.3 °F 29.84 in Calm     76% 0 in 942.00 W/m2
14:29 84.6 °F 75.8 °F 29.84 in SSW 4.6 mph 0.1 mph 75% 0 in 944.00 W/m2
14:34 85.4 °F 77.4 °F 29.84 in SSE 4.6 mph 2.9 mph 77% 0 in 940.00 W/m2
14:39 85.5 °F 76.3 °F 29.84 in SSE 4.6 mph 0.2 mph 74% 0 in 905.00 W/m2
14:44 85.6 °F 75.9 °F 29.84 in SSE 5.8 mph 3.9 mph 73% 0 in 940.00 W/m2
14:49 85.3 °F 75.7 °F 29.84 in South 6 mph 4.5 mph 73% 0 in 445.00 W/m2
14:54 84.9 °F 76.1 °F 29.84 in SE 1.2 mph   75% 0 in 478.00 W/m2
14:59 84.7 °F 76.3 °F 29.84 in SE 1 mph 1.7 mph 76% 0 in 232.00 W/m2
15:04 84.2 °F 76.2 °F 29.84 in SSE 5 mph 1.2 mph 77% 0 in 142.00 W/m2
15:09 83.4 °F 76.2 °F 29.84 in South 4.6 mph 4.3 mph 79% 0 in 155.00 W/m2
15:14 82.4 °F 76 °F 29.84 in SSE 6.9 mph 2.7 mph 81% 0 in 149.00 W/m2
15:19 81.6 °F 75.6 °F 29.83 in SSE 4.6 mph 2.1 mph 82% 0 in 163.00 W/m2
15:24 81.3 °F 76 °F 29.83 in SSE 5 mph 1.7 mph 84% 0 in 248.00 W/m2
15:29 81.2 °F 75.5 °F 29.83 in SSE 1.2 mph 0.2 mph 83% 0 in 330.00 W/m2
15:34 81.7 °F 76.4 °F 29.82 in SSE 3.5 mph 2.4 mph 84% 0 in 362.00 W/m2
15:39 83.2 °F 78.2 °F 29.82 in SE 6 mph 4.5 mph 85% 0 in 874.00 W/m2
15:44 83.3 °F 76.9 °F 29.82 in Calm     81% 0 in 148.00 W/m2
15:49 82.7 °F 74.8 °F 29.83 in WSW 3 mph 0.5 mph 77% 0 in 72.00 W/m2
15:54 81.5 °F 75.1 °F 29.83 in WSW 8.1 mph 4.7 mph 81% 0 in 53.00 W/m2
15:59 80.5 °F 74.9 °F 29.83 in West 7 mph 3.5 mph 83% 0 in 53.00 W/m2
16:04 79.7 °F 74.4 °F 29.83 in WNW 11.5 mph 3.7 mph 84% 0 in 46.00 W/m2
16:09 78.9 °F 74.7 °F 29.83 in NW 5.8 mph 4.9 mph 87% 0 in 74.00 W/m2
16:14 78 °F 74.5 °F 29.83 in WNW 8.1 mph 3.3 mph 89% 0 in 97.00 W/m2
16:19 77.3 °F 73.8 °F 29.84 in NW 5.8 mph 2.3 mph 89% 0 in 100.00 W/m2
16:24 76.9 °F 73.7 °F 29.84 in NW 3.5 mph 2.1 mph 90% 0 in 111.00 W/m2
16:29 76.6 °F 73.1 °F 29.84 in NNW 4.6 mph 2.8 mph 89% 0 in 116.00 W/m2
16:34 76.3 °F 72.8 °F 29.84 in NW 3.5 mph 0.8 mph 89% 0 in 123.00 W/m2
16:39 76.5 °F 73 °F 29.84 in NW 3.5 mph 1.9 mph 89% 0 in 134.00 W/m2
16:44 76.6 °F 73.4 °F 29.84 in West 3.5 mph 0.6 mph 90% 0 in 134.00 W/m2
16:49 76.8 °F 74 °F 29.84 in WSW 4 mph 2.4 mph 91% 0.01 in 128.00 W/m2
16:54 76.8 °F 74.3 °F 29.83 in WSW 3.5 mph 1.9 mph 92% 0.03 in 134.00 W/m2
16:59 76.6 °F 74.1 °F 29.83 in West 2.3 mph   92% 0.05 in 123.00 W/m2
17:04 76.6 °F 74.4 °F 29.83 in Calm     93% 0.06 in 107.00 W/m2
17:09 76.7 °F 74.5 °F 29.84 in Calm     93% 0.06 in 93.00 W/m2
17:14 76.8 °F 74.9 °F 29.84 in South 3 mph 2 mph 94% 0.06 in 93.00 W/m2
17:19 76.9 °F 75 °F 29.84 in SSE 3.5 mph 0.8 mph 94% 0.06 in 162.00 W/m2
17:24 76.9 °F 74.7 °F 29.83 in SSE 3.5 mph 1 mph 93% 0.06 in 91.00 W/m2
17:29 76.4 °F 74.2 °F 29.83 in SSE 2 mph 2.1 mph 93% 0.06 in 98.00 W/m2
17:34 76.3 °F 74.4 °F 29.83 in SE 3.5 mph 0.5 mph 94% 0.06 in 109.00 W/m2
17:39 76.2 °F 74.3 °F 29.83 in Calm     94% 0.06 in 132.00 W/m2
17:44 76.3 °F 74.4 °F 29.83 in Calm     94% 0.06 in 134.00 W/m2
17:49 76.5 °F 74.6 °F 29.83 in Calm     94% 0.05 in 104.00 W/m2
17:54 76.7 °F 74.8 °F 29.83 in Calm     94% 0.03 in 84.00 W/m2
17:59 76.6 °F 74.7 °F 29.83 in Calm     94% 0.01 in 86.00 W/m2
18:04 76.4 °F 74.5 °F 29.83 in Calm     94% 0 in 83.00 W/m2
18:09 76.3 °F 74.4 °F 29.83 in Calm     94% 0 in 84.00 W/m2
18:14 76.2 °F 74.3 °F 29.83 in Calm     94% 0 in 83.00 W/m2
18:19 76.2 °F 74.3 °F 29.83 in Calm     94% 0 in 91.00 W/m2
18:24 76.2 °F 74.3 °F 29.82 in Calm     94% 0 in 102.00 W/m2
18:29 76.3 °F 74.4 °F 29.82 in Calm     94% 0 in 104.00 W/m2
18:34 76.4 °F 74.5 °F 29.82 in Calm     94% 0 in 100.00 W/m2
18:39 76.4 °F 74.5 °F 29.82 in Calm     94% 0 in 88.00 W/m2
18:44 76.5 °F 74.6 °F 29.82 in Calm     94% 0 in 76.00 W/m2
18:49 76.6 °F 74.7 °F 29.82 in Calm     94% 0 in 65.00 W/m2
18:54 76.5 °F 74.6 °F 29.82 in Calm     94% 0 in 54.00 W/m2
18:59 76.6 °F 74.7 °F 29.82 in Calm     94% 0 in 51.00 W/m2
19:04 76.7 °F 74.8 °F 29.82 in Calm     94% 0 in 56.00 W/m2
19:09 76.7 °F 74.8 °F 29.82 in Calm     94% 0 in 104.00 W/m2
19:14 76.7 °F 74.8 °F 29.82 in Calm     94% 0 in 79.00 W/m2
19:19 76.8 °F 74.9 °F 29.82 in Calm     94% 0 in 123.00 W/m2
19:24 76.8 °F 74.9 °F 29.82 in Calm     94% 0 in 65.00 W/m2
19:29 76.7 °F 74.8 °F 29.82 in Calm     94% 0 in 58.00 W/m2
19:34 76.7 °F 74.5 °F 29.83 in Calm     93% 0 in 42.00 W/m2
19:39 76.6 °F 74.4 °F 29.83 in Calm     93% 0 in 30.00 W/m2
19:44 76.6 °F 74.7 °F 29.83 in Calm     94% 0 in 23.00 W/m2
19:49 76.6 °F 74.7 °F 29.83 in Calm     94% 0 in 18.00 W/m2
19:54 76.6 °F 74.7 °F 29.83 in Calm     94% 0 in 14.00 W/m2
19:59 76.4 °F 74.5 °F 29.83 in Calm     94% 0 in 11.00 W/m2
20:04 76.4 °F 74.5 °F 29.84 in Calm     94% 0 in 7.00 W/m2
20:09 76.2 °F 74.3 °F 29.84 in Calm     94% 0 in 5.00 W/m2
20:14 76.1 °F 74.2 °F 29.84 in Calm     94% 0 in 0.00 W/m2
20:19 76 °F 74.1 °F 29.83 in Calm     94% 0 in 0.00 W/m2
20:24 75.8 °F 73.9 °F 29.83 in Calm     94% 0 in 0.00 W/m2
20:29 75.7 °F 73.8 °F 29.84 in Calm     94% 0 in 0.00 W/m2
20:34 75.5 °F 73.7 °F 29.84 in Calm     94% 0 in 0.00 W/m2
20:39 75.2 °F 73.4 °F 29.83 in Calm     94% 0 in 0.00 W/m2
20:44 75.1 °F 73.3 °F 29.83 in Calm     94% 0 in 0.00 W/m2
20:49 74.9 °F 73.1 °F 29.83 in Calm     94% 0 in 0.00 W/m2
20:54 74.7 °F 72.9 °F 29.83 in Calm     94% 0 in 0.00 W/m2
20:59 74.6 °F 72.8 °F 29.83 in Calm     94% 0 in 0.00 W/m2
21:04 74.6 °F 72.8 °F 29.83 in Calm     94% 0 in 0.00 W/m2
21:09 74.5 °F 73 °F 29.84 in Calm     95% 0 in 0.00 W/m2
21:14 74.4 °F 72.9 °F 29.84 in Calm     95% 0 in 0.00 W/m2
21:19 74.3 °F 72.8 °F 29.84 in Calm     95% 0 in 0.00 W/m2
21:24 74.2 °F 72.7 °F 29.84 in Calm     95% 0 in 0.00 W/m2
21:29 74 °F 72.5 °F 29.84 in Calm     95% 0 in 0.00 W/m2
21:34 73.6 °F 72.1 °F 29.84 in Calm     95% 0 in 0.00 W/m2
21:39 73.5 °F 72 °F 29.85 in Calm     95% 0 in 0.00 W/m2
21:44 73.3 °F 71.8 °F 29.84 in Calm     95% 0 in 0.00 W/m2
21:49 72.9 °F 71.4 °F 29.84 in Calm     95% 0 in 0.00 W/m2
21:54 72.7 °F 71.2 °F 29.84 in Calm     95% 0 in 0.00 W/m2
21:59 72.7 °F 71.2 °F 29.84 in Calm     95% 0 in 0.00 W/m2
22:04 72.8 °F 71.3 °F 29.84 in Calm     95% 0 in 0.00 W/m2
22:09 73 °F 71.5 °F 29.84 in Calm     95% 0 in 0.00 W/m2
22:14 73.3 °F 71.8 °F 29.83 in Calm     95% 0 in 0.00 W/m2
22:19 73.4 °F 71.9 °F 29.84 in Calm     95% 0 in 0.00 W/m2
22:24 73.6 °F 72.1 °F 29.84 in Calm     95% 0 in 0.00 W/m2
22:29 73.8 °F 72.3 °F 29.84 in Calm     95% 0 in 0.00 W/m2
22:34 73.9 °F 72.4 °F 29.84 in Calm     95% 0 in 0.00 W/m2
22:39 74.2 °F 72.7 °F 29.84 in Calm     95% 0 in 0.00 W/m2
22:44 74.1 °F 72.6 °F 29.84 in Calm     95% 0 in 0.00 W/m2
22:49 73.7 °F 72.2 °F 29.84 in Calm     95% 0 in 0.00 W/m2
22:54 73.2 °F 71.7 °F 29.84 in Calm     95% 0 in 0.00 W/m2
22:59 73.1 °F 71.6 °F 29.84 in Calm     95% 0 in 0.00 W/m2
23:04 72.7 °F 71.2 °F 29.84 in Calm     95% 0 in 0.00 W/m2
23:09 72.7 °F 71.2 °F 29.84 in Calm     95% 0 in 0.00 W/m2
23:14 73.2 °F 71.7 °F 29.83 in Calm     95% 0 in 0.00 W/m2
23:19 73.2 °F 71.7 °F 29.83 in Calm     95% 0 in 0.00 W/m2
23:24 73.5 °F 72 °F 29.83 in Calm     95% 0 in 0.00 W/m2
23:29 73.7 °F 72.2 °F 29.83 in Calm     95% 0 in 0.00 W/m2
23:34 73.9 °F 72.4 °F 29.83 in Calm     95% 0 in 0.00 W/m2
23:39 73.7 °F 72.2 °F 29.83 in Calm     95% 0 in 0.00 W/m2
23:44 73.2 °F 71.7 °F 29.83 in Calm     95% 0 in 0.00 W/m2
23:49 72.8 °F 71.3 °F 29.83 in Calm     95% 0 in 0.00 W/m2
23:54 72.5 °F 71 °F 29.83 in Calm     95% 0 in 0.00 W/m2
23:59 72.5 °F 71 °F 29.83 in Calm     95% 0 in 0.00 W/m2
Bourbonnais, Illinois, USA
Compliments of Weather Underground - 2 mb